createdAt,value
2018-07-13T00:00:28.537Z,98379.38
2018-07-13T00:02:58.301Z,98381.39
2018-07-13T00:06:01.243Z,98388.70
2018-07-13T00:08:31.457Z,98387.13
2018-07-13T00:11:01.660Z,98389.39
2018-07-13T00:13:31.719Z,98386.27
2018-07-13T00:16:03.923Z,98390.70
2018-07-13T00:18:34.838Z,98396.19
2018-07-13T00:21:05.027Z,98393.64
2018-07-13T00:23:35.085Z,98389.33
2018-07-13T00:26:05.094Z,98385.01
2018-07-13T00:28:39.532Z,98383.09
2018-07-13T00:31:10.310Z,98387.27
2018-07-13T00:33:51.406Z,98385.80
2018-07-13T00:36:21.211Z,98387.45
2018-07-13T00:39:06.074Z,98391.30
2018-07-13T00:41:36.150Z,98388.44
2018-07-13T00:44:26.432Z,98390.30
2018-07-13T00:47:03.417Z,98398.06
2018-07-13T00:49:33.246Z,98386.58
2018-07-13T00:52:09.958Z,98390.75
2018-07-13T00:54:39.853Z,98392.42
2018-07-13T00:57:09.767Z,98381.62
2018-07-13T00:59:39.957Z,98385.92
2018-07-13T01:02:09.534Z,98387.36
2018-07-13T01:04:39.228Z,98384.59
2018-07-13T01:07:09.139Z,98388.92
2018-07-13T01:09:38.647Z,98390.22
2018-07-13T01:12:08.226Z,98389.81
2018-07-13T01:14:38.370Z,98387.38
2018-07-13T01:17:09.281Z,98391.95
2018-07-13T01:19:38.784Z,98397.78
2018-07-13T01:22:08.462Z,98389.27
2018-07-13T01:24:38.162Z,98398.44
2018-07-13T01:27:09.083Z,98399.22
2018-07-13T01:29:38.527Z,98405.05
2018-07-13T01:32:08.160Z,98404.41
2018-07-13T01:34:37.635Z,98405.85
2018-07-13T01:37:07.365Z,98394.45
2018-07-13T01:39:37.329Z,98410.48
2018-07-13T01:42:09.160Z,98414.47
2018-07-13T01:44:38.630Z,98411.66
2018-07-13T01:47:08.995Z,98414.03
2018-07-13T01:49:38.450Z,98408.27
2018-07-13T01:52:10.396Z,98408.48
2018-07-13T01:54:40.016Z,98408.36
2018-07-13T01:57:09.940Z,98411.42
2018-07-13T01:59:41.380Z,98410.92
2018-07-13T02:02:11.611Z,98410.50
2018-07-13T02:04:41.324Z,98411.19
2018-07-13T02:07:10.998Z,98413.72
2018-07-13T02:09:40.469Z,98409.10
2018-07-13T02:12:10.103Z,98410.20
2018-07-13T02:14:39.746Z,98411.73
2018-07-13T02:17:10.497Z,98405.84
2018-07-13T02:19:40.010Z,98405.16
2018-07-13T02:22:09.619Z,98401.55
2018-07-13T02:24:39.463Z,98401.85
2018-07-13T02:27:09.145Z,98408.89
2018-07-13T02:29:38.739Z,98411.95
2018-07-13T02:32:10.798Z,98408.00
2018-07-13T02:34:40.348Z,98409.44
2018-07-13T02:37:09.835Z,98413.05
2018-07-13T02:39:39.365Z,98407.44
2018-07-13T02:42:08.890Z,98408.42
2018-07-13T02:44:38.512Z,98420.25
2018-07-13T02:47:08.487Z,98416.98
2018-07-13T02:49:38.847Z,98419.91
2018-07-13T02:52:08.402Z,98420.16
2018-07-13T02:54:38.429Z,98420.84
2018-07-13T02:59:37.871Z,98419.91
2018-07-13T03:02:08.815Z,98420.23
2018-07-13T03:04:38.524Z,98420.67
2018-07-13T03:07:08.474Z,98423.59
2018-07-13T03:09:38.022Z,98422.53
2018-07-13T03:18:12.578Z,98429.67
2018-07-13T03:20:42.090Z,98435.18
2018-07-13T03:23:11.895Z,98438.06
2018-07-13T03:25:41.692Z,98437.93
2018-07-13T03:28:11.538Z,98438.61
2018-07-13T03:30:41.559Z,98435.13
2018-07-13T03:33:11.474Z,98440.13
2018-07-13T03:35:41.696Z,98436.48
2018-07-13T03:38:11.495Z,98442.67
2018-07-13T03:40:41.090Z,98440.98
2018-07-13T03:43:20.359Z,98435.52
2018-07-13T03:45:53.821Z,98435.90
2018-07-13T03:48:24.891Z,98433.47
2018-07-13T03:50:54.838Z,98430.84
2018-07-13T03:53:24.434Z,98435.00
2018-07-13T03:55:54.207Z,98439.58
2018-07-13T03:58:24.046Z,98444.41
2018-07-13T04:00:53.721Z,98439.56
2018-07-13T04:03:24.214Z,98438.52
2018-07-13T04:05:54.064Z,98434.33
2018-07-13T04:08:24.146Z,98431.91
2018-07-13T04:10:53.993Z,98441.16
2018-07-13T04:13:24.040Z,98441.03
2018-07-13T04:15:53.863Z,98434.12
2018-07-13T04:18:24.688Z,98437.04
2018-07-13T04:20:54.667Z,98437.39
2018-07-13T04:23:24.920Z,98434.67
2018-07-13T04:25:54.490Z,98439.72
2018-07-13T04:28:28.106Z,98437.48
2018-07-13T04:30:57.606Z,98440.74
2018-07-13T04:33:27.212Z,98445.70
2018-07-13T04:35:56.643Z,98444.89
2018-07-13T04:38:26.267Z,98447.47
2018-07-13T04:40:55.798Z,98452.61
2018-07-13T04:43:25.795Z,98448.92
2018-07-13T04:45:55.544Z,98443.91
2018-07-13T04:48:25.312Z,98445.48
2018-07-13T04:50:55.002Z,98444.02
2018-07-13T04:53:25.408Z,98438.35
2018-07-13T04:55:55.013Z,98441.48
2018-07-13T04:58:24.775Z,98439.48
2018-07-13T05:00:54.398Z,98438.31
2018-07-13T05:03:25.787Z,98442.42
2018-07-13T05:05:55.854Z,98443.54
2018-07-13T05:08:25.931Z,98449.45
2018-07-13T05:10:57.771Z,98445.66
2018-07-13T05:13:27.534Z,98448.86
2018-07-13T05:15:57.736Z,98435.86
2018-07-13T05:18:27.674Z,98440.45
2018-07-13T05:20:58.853Z,98449.70
2018-07-13T05:23:28.615Z,98446.50
2018-07-13T05:25:58.192Z,98444.14
2018-07-13T05:28:28.169Z,98444.85
2018-07-13T05:30:58.506Z,98451.45
2018-07-13T05:33:28.121Z,98449.56
2018-07-13T05:35:58.879Z,98459.20
2018-07-13T05:38:28.486Z,98458.11
2018-07-13T05:40:58.118Z,98460.37
2018-07-13T05:43:27.906Z,98460.02
2018-07-13T05:45:58.359Z,98462.30
2018-07-13T05:48:30.703Z,98460.58
2018-07-13T05:51:00.649Z,98467.17
2018-07-13T05:53:30.426Z,98469.80
2018-07-13T05:56:00.075Z,98469.30
2018-07-13T05:58:30.792Z,98470.98
2018-07-13T06:01:08.815Z,98473.68
2018-07-13T06:03:38.364Z,98474.44
2018-07-13T06:06:07.963Z,98473.97
2018-07-13T06:08:37.712Z,98475.78
2018-07-13T06:11:08.061Z,98478.61
2018-07-13T06:13:37.557Z,98479.15
2018-07-13T06:16:06.963Z,98481.59
2018-07-13T06:18:36.852Z,98485.38
2018-07-13T06:21:07.141Z,98485.95
2018-07-13T06:23:36.695Z,98480.34
2018-07-13T06:26:06.536Z,98482.92
2018-07-13T06:28:36.014Z,98489.44
2018-07-13T06:31:05.559Z,98488.96
2018-07-13T06:33:36.689Z,98490.63
2018-07-13T06:36:06.198Z,98486.35
2018-07-13T06:38:36.914Z,98489.92
2018-07-13T06:41:09.433Z,98490.45
2018-07-13T06:43:39.329Z,98494.90
2018-07-13T06:46:08.813Z,98494.77
2018-07-13T06:48:38.683Z,98492.52
2018-07-13T06:51:08.165Z,98504.38
2018-07-13T06:54:38.427Z,98503.89
2018-07-13T06:57:08.412Z,98498.91
2018-07-13T06:59:38.089Z,98505.19
2018-07-13T07:02:08.527Z,98506.11
2018-07-13T07:04:39.788Z,98499.98
2018-07-13T07:07:12.845Z,98505.04
2018-07-13T07:09:46.185Z,98507.50
2018-07-13T07:13:25.106Z,98505.31
2018-07-13T07:15:54.674Z,98502.22
2018-07-13T07:18:24.463Z,98510.36
2018-07-13T07:20:54.418Z,98505.11
2018-07-13T07:23:24.429Z,98505.97
2018-07-13T07:25:55.157Z,98511.84
2018-07-13T07:28:24.666Z,98502.64
2018-07-13T07:31:40.236Z,98507.76
2018-07-13T07:34:12.154Z,98509.78
2018-07-13T07:36:41.726Z,98511.42
2018-07-13T07:39:12.653Z,98513.02
2018-07-13T07:41:45.615Z,98510.89
2018-07-13T07:44:15.221Z,98516.44
2018-07-13T07:46:44.789Z,98511.23
2018-07-13T07:49:18.938Z,98511.80
2018-07-13T07:51:48.442Z,98507.93
2018-07-13T07:54:17.944Z,98511.12
2018-07-13T07:56:48.734Z,98519.72
2018-07-13T07:59:18.781Z,98518.08
2018-07-13T08:01:48.553Z,98514.27
2018-07-13T08:04:30.744Z,98511.45
2018-07-13T08:07:00.757Z,98508.03
2018-07-13T08:09:29.870Z,98509.70
2018-07-13T08:12:03.401Z,98515.36
2018-07-13T08:14:32.971Z,98506.20
2018-07-13T08:17:02.797Z,98510.71
2018-07-13T08:19:34.885Z,98499.04
2018-07-13T08:22:12.884Z,98504.71
2018-07-13T08:24:44.052Z,98502.05
2018-07-13T08:27:20.959Z,98491.97
2018-07-13T08:29:50.895Z,98497.09
2018-07-13T08:32:20.566Z,98489.53
2018-07-13T08:35:00.174Z,98494.73
2018-07-13T08:37:30.984Z,98494.30
2018-07-13T08:40:01.249Z,98495.81
2018-07-13T08:42:33.851Z,98494.05
2018-07-13T08:45:03.825Z,98501.48
2018-07-13T08:47:33.945Z,98499.92
2018-07-13T08:50:12.672Z,98501.23
2018-07-13T08:52:42.614Z,98509.05
2018-07-13T08:55:14.066Z,98512.30
2018-07-13T08:57:51.861Z,98512.84
2018-07-13T09:00:26.836Z,98515.04
2018-07-13T09:02:57.234Z,98515.41
2018-07-13T09:05:27.252Z,98516.24
2018-07-13T09:07:56.961Z,98458.44
2018-07-13T09:10:32.367Z,98514.20
2018-07-13T09:13:03.103Z,98514.37
2018-07-13T09:15:32.798Z,98513.37
2018-07-13T09:18:02.963Z,98516.59
2018-07-13T09:20:32.631Z,98523.20
2018-07-13T09:23:02.824Z,98525.05
2018-07-13T09:25:37.316Z,98528.44
2018-07-13T09:28:07.096Z,98524.27
2018-07-13T09:30:36.835Z,98524.93
2018-07-13T09:38:30.406Z,98528.20
2018-07-13T09:40:59.945Z,98523.55
2018-07-13T09:43:29.563Z,98523.09
2018-07-13T09:46:01.951Z,98526.98
2018-07-13T09:48:31.909Z,98529.59
2018-07-13T09:51:01.653Z,98532.42
2018-07-13T09:57:03.189Z,98531.13
2018-07-13T09:59:42.434Z,98534.88
2018-07-13T10:02:12.258Z,98528.16
2018-07-13T10:04:46.476Z,98526.86
2018-07-13T10:07:16.286Z,98527.27
2018-07-13T10:09:45.845Z,98523.37
2018-07-13T10:12:15.701Z,98528.58
2018-07-13T10:14:46.303Z,98532.50
2018-07-13T10:17:17.706Z,98529.29
2018-07-13T10:19:55.059Z,98527.67
2018-07-13T10:22:28.613Z,98525.28
2018-07-13T10:25:00.691Z,98532.55
2018-07-13T10:27:36.349Z,98524.23
2018-07-13T10:30:07.737Z,98518.20
2018-07-13T10:32:37.765Z,98520.91
2018-07-13T10:35:08.679Z,98517.91
2018-07-13T10:37:38.920Z,98513.41
2018-07-13T10:40:08.517Z,98509.95
2018-07-13T10:42:40.543Z,98508.59
2018-07-13T10:45:09.968Z,98500.12
2018-07-13T10:47:39.525Z,98507.63
2018-07-13T10:50:10.280Z,98497.96
2018-07-13T10:52:39.846Z,98509.77
2018-07-13T10:55:14.156Z,98508.46
2018-07-13T10:57:43.867Z,98509.43
2018-07-13T11:00:13.516Z,98501.95
2018-07-13T11:02:43.094Z,98496.06
2018-07-13T11:05:16.402Z,98496.11
2018-07-13T11:07:46.099Z,98494.46
2018-07-13T11:10:26.351Z,98497.58
2018-07-13T11:12:56.165Z,98486.97
2018-07-13T11:15:26.942Z,98483.00
2018-07-13T11:17:59.068Z,98487.53
2018-07-13T11:20:31.079Z,98490.48
2018-07-13T11:23:00.629Z,98484.13
2018-07-13T11:25:30.208Z,98481.59
2018-07-13T11:28:01.069Z,98471.95
2018-07-13T11:30:30.609Z,98469.91
2018-07-13T11:33:01.351Z,98465.24
2018-07-13T11:35:30.830Z,98466.66
2018-07-13T11:38:02.848Z,98464.00
2018-07-13T11:40:32.426Z,98465.28
2018-07-13T11:43:02.141Z,98460.72
2018-07-13T11:45:31.711Z,98462.86
2018-07-13T11:50:58.001Z,98471.91
2018-07-13T11:53:27.600Z,98477.45
2018-07-13T11:55:57.447Z,98467.11
2018-07-13T11:58:27.063Z,98457.77
2018-07-13T12:00:56.847Z,98458.96
2018-07-13T12:03:26.495Z,98463.64
2018-07-13T12:05:57.412Z,98455.50
2018-07-13T12:08:27.056Z,98449.48
2018-07-13T12:10:56.569Z,98443.86
2018-07-13T12:13:26.189Z,98440.86
2018-07-13T12:15:55.849Z,98428.72
2018-07-13T12:18:35.967Z,98427.05
2018-07-13T12:21:05.725Z,98429.22
2018-07-13T12:23:35.466Z,98423.41
2018-07-13T12:26:06.399Z,98423.63
2018-07-13T12:28:36.347Z,98414.20
2018-07-13T12:31:12.944Z,98419.06
2018-07-13T12:33:42.906Z,98420.29
2018-07-13T12:39:12.901Z,98417.02
2018-07-13T12:41:42.635Z,98416.60
2018-07-13T12:44:18.812Z,98419.16
2018-07-13T12:46:48.535Z,98407.35
2018-07-13T12:49:18.145Z,98409.86
2018-07-13T12:51:47.760Z,98403.20
2018-07-13T12:54:18.696Z,98399.07
2018-07-13T13:01:52.665Z,98403.81
2018-07-13T13:04:23.912Z,98389.30
2018-07-13T13:06:56.159Z,98391.67
2018-07-13T13:09:25.929Z,98390.97
2018-07-13T13:11:57.039Z,98386.41
2018-07-13T13:17:19.605Z,98390.06
2018-07-13T13:19:57.012Z,98380.40
2018-07-13T13:22:26.526Z,98384.27
2018-07-13T13:28:17.983Z,98375.36
2018-07-13T13:30:47.590Z,98377.52
2018-07-13T13:33:17.384Z,98381.74
2018-07-13T13:38:40.537Z,98374.52
2018-07-13T13:41:10.992Z,98374.02
2018-07-13T13:43:42.651Z,98375.29
2018-07-13T13:46:15.480Z,98379.84
2018-07-13T13:48:45.213Z,98374.34
2018-07-13T13:51:15.413Z,98383.08
2018-07-13T13:53:49.204Z,98376.78
2018-07-13T13:56:26.267Z,98379.55
2018-07-13T13:58:57.379Z,98375.89
2018-07-13T14:04:03.376Z,98372.92
2018-07-13T14:06:40.304Z,98362.73
2018-07-13T14:09:11.287Z,98362.76
2018-07-13T14:11:44.703Z,98365.10
2018-07-13T14:14:20.605Z,98364.48
2018-07-13T14:16:51.418Z,98366.21
2018-07-13T14:19:21.583Z,98375.74
2018-07-13T14:21:51.547Z,98380.47
2018-07-13T14:24:22.835Z,98382.29
2018-07-13T14:30:03.371Z,98387.36
2018-07-13T14:32:50.142Z,98386.35
2018-07-13T14:35:24.264Z,98390.22
2018-07-13T14:37:55.392Z,98387.38
2018-07-13T14:40:47.952Z,98382.15
2018-07-13T14:43:18.411Z,98385.55
2018-07-13T14:45:51.028Z,98377.61
2018-07-13T14:48:20.567Z,98374.90
2018-07-13T14:50:50.470Z,98372.72
2018-07-13T14:53:21.604Z,98372.70
2018-07-13T14:55:51.133Z,98378.19
2018-07-13T14:58:20.807Z,98374.47
2018-07-13T15:00:50.509Z,98356.44
2018-07-13T15:03:26.637Z,98350.91
2018-07-13T15:05:56.445Z,98346.64
2018-07-13T15:08:31.940Z,98341.78
2018-07-13T15:11:01.736Z,98335.52
2018-07-13T15:13:31.287Z,98332.45
2018-07-13T15:16:09.759Z,98337.94
2018-07-13T15:18:40.025Z,98342.06
2018-07-13T15:21:09.934Z,98340.53
2018-07-13T15:23:40.812Z,98337.41
2018-07-13T15:26:10.414Z,98338.11
2018-07-13T15:28:39.853Z,98331.14
2018-07-13T15:31:09.292Z,98333.99
2018-07-13T15:33:39.420Z,98337.41
2018-07-13T15:36:09.115Z,98340.63
2018-07-13T15:38:40.294Z,98342.58
2018-07-13T15:41:09.918Z,98346.09
2018-07-13T15:43:39.416Z,98349.69
2018-07-13T15:46:09.853Z,98337.63
2018-07-13T15:48:42.223Z,98322.70
2018-07-13T15:51:11.857Z,98320.05
2018-07-13T15:53:41.472Z,98306.39
2018-07-13T15:56:10.989Z,98309.87
2018-07-13T15:58:40.989Z,98302.72
2018-07-13T16:01:10.794Z,98300.19
2018-07-13T16:03:40.302Z,98301.98
2018-07-13T16:06:09.766Z,98299.37
2018-07-13T16:08:39.641Z,98294.42
2018-07-13T16:11:09.547Z,98294.71
2018-07-13T16:13:39.141Z,98290.48
2018-07-13T16:16:08.779Z,98295.57
2018-07-13T16:18:39.777Z,98289.64
2018-07-13T16:21:09.347Z,98293.02
2018-07-13T16:23:41.485Z,98283.38
2018-07-13T16:26:11.118Z,98282.25
2018-07-13T16:28:40.934Z,98282.42
2018-07-13T16:31:11.269Z,98281.52
2018-07-13T16:33:41.668Z,98279.19
2018-07-13T16:36:11.617Z,98277.86
2018-07-13T16:38:46.921Z,98271.23
2018-07-13T16:41:16.595Z,98272.83
2018-07-13T16:43:46.692Z,98268.52
2018-07-13T16:46:25.245Z,98271.25
2018-07-13T16:48:54.873Z,98275.05
2018-07-13T16:51:25.506Z,98273.48
2018-07-13T16:53:55.075Z,98270.50
2018-07-13T16:56:25.968Z,98269.58
2018-07-13T16:58:55.380Z,98270.93
2018-07-13T17:01:24.888Z,98263.68
2018-07-13T17:03:54.666Z,98265.25
2018-07-13T17:06:24.312Z,98259.95
2018-07-13T17:08:57.499Z,98266.39
2018-07-13T17:12:02.523Z,98262.47
2018-07-13T17:14:32.962Z,98258.09
2018-07-13T17:17:03.190Z,98257.16
2018-07-13T17:19:35.042Z,98260.70
2018-07-13T17:22:04.514Z,98255.73
2018-07-13T17:24:34.642Z,98260.63
2018-07-13T17:27:04.459Z,98260.63
2018-07-13T17:29:39.764Z,98255.44
2018-07-13T17:32:09.328Z,98253.41
2018-07-13T17:34:39.442Z,98255.98
2018-07-13T17:37:10.435Z,98254.38
2018-07-13T17:39:41.480Z,98247.39
2018-07-13T17:42:10.950Z,98250.35
2018-07-13T17:44:41.161Z,98249.80
2018-07-13T17:47:10.562Z,98259.51
2018-07-13T17:49:41.729Z,98256.41
2018-07-13T17:52:11.145Z,98252.89
2018-07-13T17:54:40.781Z,98248.81
2018-07-13T17:57:10.261Z,98248.87
2018-07-13T17:59:40.990Z,98251.14
2018-07-13T18:02:10.389Z,98255.95
2018-07-13T18:04:40.218Z,98248.58
2018-07-13T18:07:09.909Z,98256.13
2018-07-13T18:09:41.780Z,98257.56
2018-07-13T18:12:11.235Z,98255.27
2018-07-13T18:14:40.940Z,98254.22
2018-07-13T18:17:10.503Z,98257.68
2018-07-13T18:21:15.685Z,98256.48
2018-07-13T18:23:45.417Z,98256.16
2018-07-13T18:29:18.494Z,98254.75
2018-07-13T18:35:22.190Z,98259.77
2018-07-13T18:38:07.540Z,98256.86
2018-07-13T18:40:52.967Z,98245.16
2018-07-13T18:43:26.559Z,98262.61
2018-07-13T18:46:00.565Z,98255.08
2018-07-13T18:48:37.548Z,98256.39
2018-07-13T18:51:21.351Z,98262.52
2018-07-13T18:53:53.422Z,98264.61
2018-07-13T18:56:25.066Z,98265.73
2018-07-13T18:58:56.336Z,98266.88
2018-07-13T19:01:33.098Z,98273.26
2018-07-13T19:04:05.814Z,98272.45
2018-07-13T19:06:35.794Z,98267.36
2018-07-13T19:09:11.113Z,98264.27
2018-07-13T19:11:47.130Z,98263.98
2018-07-13T19:14:25.246Z,98268.22
2018-07-13T19:17:01.015Z,98271.16
2018-07-13T19:19:35.661Z,98272.84
2018-07-13T19:22:09.791Z,98275.17
2018-07-13T19:25:45.673Z,98277.27
2018-07-13T19:28:22.404Z,98273.23
2018-07-13T19:30:59.313Z,98276.11
2018-07-13T19:33:32.649Z,98283.12
2018-07-13T19:36:06.505Z,98284.65
2018-07-13T19:38:41.278Z,98289.98
2018-07-13T19:44:00.172Z,98293.14
2018-07-13T19:46:37.504Z,98299.98
2018-07-13T19:49:18.018Z,98306.48
2018-07-13T19:51:50.539Z,98307.84
2018-07-13T19:54:21.989Z,98311.49
2018-07-13T19:56:55.607Z,98311.16
2018-07-13T19:59:34.212Z,98316.97
2018-07-13T20:02:07.743Z,98323.80
2018-07-13T20:04:40.594Z,98324.06
2018-07-13T20:07:19.779Z,98328.38
2018-07-13T20:09:52.664Z,98334.52
2018-07-13T20:12:24.813Z,98331.31
2018-07-13T20:14:55.768Z,98336.97
2018-07-13T20:17:29.044Z,98338.13
2018-07-13T20:20:19.701Z,98343.61
2018-07-13T20:22:54.287Z,98342.39
2018-07-13T20:25:43.442Z,98343.23
2018-07-13T20:28:21.142Z,98350.23
2018-07-13T20:31:02.210Z,98352.48
2018-07-13T20:33:50.850Z,98347.66
2018-07-13T20:36:38.532Z,98358.09
2018-07-13T20:39:13.288Z,98350.73
2018-07-13T20:41:50.580Z,98351.33
2018-07-13T20:44:23.208Z,98346.10
2018-07-13T20:47:03.269Z,98350.58
2018-07-13T20:49:48.961Z,98344.38
2018-07-13T20:52:52.359Z,98341.49
2018-07-13T21:01:31.265Z,98353.13
2018-07-13T21:04:14.909Z,98351.21
2018-07-13T21:07:21.781Z,98353.10
2018-07-13T21:12:58.654Z,98356.13
2018-07-13T21:15:42.007Z,98357.78
2018-07-13T21:18:17.049Z,98354.91
2018-07-13T21:20:48.836Z,98356.36
2018-07-13T21:23:26.073Z,98354.81
2018-07-13T21:29:29.010Z,98363.36
2018-07-13T21:32:20.181Z,98365.53
2018-07-13T21:38:13.209Z,98369.40
2018-07-13T21:41:42.773Z,98361.44
2018-07-13T22:19:48.484Z,98371.70
2018-07-13T22:23:21.860Z,98375.91
2018-07-13T22:34:45.141Z,98376.95
2018-07-13T22:43:30.266Z,98376.84
2018-07-13T22:57:19.634Z,98376.56
2018-07-13T23:08:45.525Z,98365.88
2018-07-13T23:11:33.020Z,98370.06
2018-07-13T23:32:27.610Z,98365.28
2018-07-13T23:34:57.986Z,98364.10
2018-07-13T23:37:34.777Z,98370.78
2018-07-13T23:40:09.414Z,98367.98
2018-07-13T23:42:40.665Z,98368.44
2018-07-13T23:45:13.519Z,98364.22
2018-07-13T23:47:43.420Z,98369.10
2018-07-13T23:50:13.264Z,98367.20
2018-07-13T23:52:45.893Z,98366.73
2018-07-13T23:55:15.829Z,98367.45
2018-07-13T23:57:48.452Z,98364.30
